Time;durP1;ratioP1;P1;durP2;ratioP2;P2;SDS_P1;SDS_P2;PMS_P1;PMS_P2;Temp;Humidity;BMP_temperature;BMP_pressure;BME280_temperature;BME280_humidity;BME280_pressure;Samples;Min_cycle;Max_cycle;Signal;HPM_P1;HPM_P2
2021/08/16 00:01:57;;;;;;;;;;;;;;;25.30;39.46;100443.06;4995707;28;99113;-78
2021/08/16 00:04:24;;;;;;;;;;;;;;;25.29;39.67;100444.06;4993820;28;96805;-78
2021/08/16 00:06:50;;;;;;;;;;;;;;;25.32;39.16;100438.38;4988011;28;97531;-78
2021/08/16 00:09:17;;;;;;;;;;;;;;;25.38;39.15;100433.19;4991525;28;98965;-78
2021/08/16 00:11:43;;;;;;;;;;;;;;;25.39;39.10;100426.75;4992950;28;98653;-78
2021/08/16 00:14:09;;;;;;;;;;;;;;;25.45;38.77;100425.28;4993365;28;97078;-78
2021/08/16 00:16:36;;;;;;;;;;;;;;;25.27;39.53;100421.75;4991375;28;96913;-78
2021/08/16 00:19:02;;;;;;;;;;;;;;;25.37;39.08;100415.25;4993513;28;98917;-78
2021/08/16 00:21:30;;;;;;;;;;;;;;;25.29;38.92;100412.47;4992576;28;98802;-78
2021/08/16 00:23:56;;;;;;;;;;;;;;;25.38;39.02;100402.56;4991681;28;97633;-78
2021/08/16 00:26:22;;;;;;;;;;;;;;;25.44;38.73;100406.50;4994328;28;96837;-79
2021/08/16 00:28:49;;;;;;;;;;;;;;;25.61;38.25;100406.47;4987243;28;98851;-78
2021/08/16 00:31:15;;;;;;;;;;;;;;;25.42;38.59;100404.78;4992963;28;99286;-78
2021/08/16 00:33:42;;;;;;;;;;;;;;;25.46;38.41;100394.53;4994837;28;96975;-78
2021/08/16 00:36:08;;;;;;;;;;;;;;;25.46;38.52;100397.22;4993215;28;98276;-79
2021/08/16 00:38:36;;;;;;;;;;;;;;;25.42;38.45;100391.28;4993707;28;98974;-79
2021/08/16 00:41:02;;;;;;;;;;;;;;;25.40;38.38;100389.75;4991824;28;100344;-79
2021/08/16 00:43:29;;;;;;;;;;;;;;;25.46;38.30;100386.41;4998185;28;96932;-78
2021/08/16 00:45:55;;;;;;;;;;;;;;;25.48;37.86;100378.97;5004524;28;97172;-78
2021/08/16 00:48:21;;;;;;;;;;;;;;;25.37;38.61;100373.81;4991782;28;99291;-78
2021/08/16 00:50:48;;;;;;;;;;;;;;;25.47;38.43;100376.44;4995428;28;99215;-78
2021/08/16 00:53:14;;;;;;;;;;;;;;;25.45;38.12;100373.03;4997596;28;96688;-79
2021/08/16 00:55:43;;;;;;;;;;;;;;;25.50;37.84;100373.41;4996300;28;97614;-79
2021/08/16 00:58:10;;;;;;;;;;;;;;;25.36;38.46;100377.53;4978479;28;99399;-78
2021/08/16 01:00:36;;;;;;;;;;;;;;;25.22;38.62;100365.44;4987505;28;98800;-78
2021/08/16 01:03:02;;;;;;;;;;;;;;;25.23;38.80;100367.13;5000250;28;96798;-79
2021/08/16 01:05:28;;;;;;;;;;;;;;;25.29;38.38;100366.50;4996978;28;97156;-78
2021/08/16 01:07:55;;;;;;;;;;;;;;;25.27;38.40;100363.09;4991358;28;98907;-78
2021/08/16 01:10:22;;;;;;;;;;;;;;;25.27;38.66;100370.38;4983348;28;99318;-78
2021/08/16 01:12:50;;;;;;;;;;;;;;;25.23;38.54;100359.03;4996616;28;97007;-79
2021/08/16 01:15:16;;;;;;;;;;;;;;;25.25;38.75;100358.88;4996436;28;96838;-78
2021/08/16 01:17:43;;;;;;;;;;;;;;;25.09;39.20;100362.28;4994763;28;98866;-78
2021/08/16 01:20:10;;;;;;;;;;;;;;;25.20;39.05;100348.53;4996804;28;98946;-78
2021/08/16 01:22:38;;;;;;;;;;;;;;;25.01;38.95;100352.25;4995118;28;96899;-79
2021/08/16 01:25:06;;;;;;;;;;;;;;;25.08;38.85;100340.81;4996428;28;97244;-79
2021/08/16 01:27:34;;;;;;;;;;;;;;;24.91;39.42;100335.28;4995223;28;98948;-78
2021/08/16 01:30:01;;;;;;;;;;;;;;;24.90;39.11;100335.44;4984827;28;99128;-79
2021/08/16 01:32:27;;;;;;;;;;;;;;;25.01;39.02;100333.31;4995067;28;96845;-79
2021/08/16 01:34:54;;;;;;;;;;;;;;;25.09;38.99;100326.28;4996546;28;96933;-79
2021/08/16 01:37:20;;;;;;;;;;;;;;;25.02;39.36;100317.97;4985783;28;98968;-79
2021/08/16 01:39:46;;;;;;;;;;;;;;;25.07;39.29;100320.22;4995647;28;98006;-79
2021/08/16 01:42:12;;;;;;;;;;;;;;;25.09;39.06;100320.88;4995112;28;96900;-79
2021/08/16 01:44:40;;;;;;;;;;;;;;;25.04;39.11;100323.22;4995412;28;96979;-79
2021/08/16 01:47:06;;;;;;;;;;;;;;;25.00;39.34;100317.28;4995073;28;98949;-79
2021/08/16 01:49:33;;;;;;;;;;;;;;;25.02;39.06;100309.84;4995807;28;100474;-79
2021/08/16 01:51:59;;;;;;;;;;;;;;;25.01;39.02;100303.59;4996904;28;96876;-78
2021/08/16 01:54:25;;;;;;;;;;;;;;;24.99;39.55;100300.22;5000364;28;97041;-79
2021/08/16 01:56:52;;;;;;;;;;;;;;;24.87;39.74;100298.75;5008356;28;97890;-79
2021/08/16 01:59:18;;;;;;;;;;;;;;;24.87;39.63;100285.25;4996721;28;98020;-79
2021/08/16 02:01:45;;;;;;;;;;;;;;;24.83;39.89;100281.13;4988974;28;96814;-79
2021/08/16 02:04:12;;;;;;;;;;;;;;;24.67;40.14;100277.47;5004907;28;96878;-78
2021/08/16 02:06:38;;;;;;;;;;;;;;;24.65;40.09;100274.91;5004565;28;98998;-78
2021/08/16 02:09:04;;;;;;;;;;;;;;;24.68;39.98;100269.19;5001280;28;97829;-78
2021/08/16 02:11:31;;;;;;;;;;;;;;;24.59;40.29;100262.03;4997656;28;96851;-79
2021/08/16 02:13:57;;;;;;;;;;;;;;;24.50;40.57;100253.00;4989818;28;97476;-79
2021/08/16 02:16:23;;;;;;;;;;;;;;;24.41;40.69;100261.19;4992802;28;98875;-78
2021/08/16 02:18:51;;;;;;;;;;;;;;;24.37;41.19;100259.78;4993636;28;98749;-77
2021/08/16 02:21:17;;;;;;;;;;;;;;;24.21;41.45;100255.09;4984738;28;97916;-78
2021/08/16 02:23:44;;;;;;;;;;;;;;;24.19;41.73;100249.84;4996894;28;96914;-78
2021/08/16 02:26:10;;;;;;;;;;;;;;;24.05;41.90;100253.03;4991559;28;101894;-78
2021/08/16 02:28:36;;;;;;;;;;;;;;;24.13;42.05;100253.13;4993855;28;98920;-77
2021/08/16 02:31:03;;;;;;;;;;;;;;;24.30;41.63;100258.72;4985294;28;96854;-78
2021/08/16 02:33:29;;;;;;;;;;;;;;;24.03;41.92;100248.78;4995644;28;97491;-78
2021/08/16 02:35:57;;;;;;;;;;;;;;;24.03;42.12;100246.94;4995034;28;98147;-78
2021/08/16 02:38:24;;;;;;;;;;;;;;;24.18;42.00;100244.56;4994224;28;97662;-78
2021/08/16 02:40:50;;;;;;;;;;;;;;;24.08;41.81;100247.34;4995262;28;97164;-78
2021/08/16 02:43:16;;;;;;;;;;;;;;;24.13;41.96;100239.63;4994170;28;97096;-79
2021/08/16 02:45:46;;;;;;;;;;;;;;;23.99;42.27;100245.56;4994910;28;99284;-79
2021/08/16 02:48:13;;;;;;;;;;;;;;;23.98;42.35;100243.00;4996225;28;99739;-79
2021/08/16 02:50:39;;;;;;;;;;;;;;;24.00;42.14;100236.47;4996027;28;96774;-79
2021/08/16 02:53:07;;;;;;;;;;;;;;;23.91;42.20;100237.38;4994098;28;96945;-79
2021/08/16 02:55:33;;;;;;;;;;;;;;;24.01;42.01;100240.88;4993831;28;99233;-79
2021/08/16 02:57:59;;;;;;;;;;;;;;;23.69;42.85;100235.09;4994506;28;101914;-79
2021/08/16 03:00:26;;;;;;;;;;;;;;;23.79;42.66;100222.41;4989672;28;97074;-78
2021/08/16 03:02:52;;;;;;;;;;;;;;;23.71;42.71;100233.09;4991363;28;96937;-78
2021/08/16 03:05:18;;;;;;;;;;;;;;;23.67;42.81;100224.47;4997700;28;98947;-78
2021/08/16 03:07:44;;;;;;;;;;;;;;;23.83;42.49;100227.31;4998909;28;97765;-79
2021/08/16 03:10:13;;;;;;;;;;;;;;;23.82;42.71;100227.50;5011650;28;97175;-80
2021/08/16 03:12:39;;;;;;;;;;;;;;;23.74;42.56;100222.84;5000211;28;96990;-79
2021/08/16 03:15:06;;;;;;;;;;;;;;;23.67;42.70;100219.06;4999395;28;98972;-79
2021/08/16 03:17:32;;;;;;;;;;;;;;;23.66;42.77;100213.81;5005266;28;99146;-79
2021/08/16 03:19:58;;;;;;;;;;;;;;;23.88;42.27;100217.94;5014889;28;97858;-79
2021/08/16 03:22:25;;;;;;;;;;;;;;;23.66;42.63;100217.38;5005371;28;96595;-79
2021/08/16 03:24:51;;;;;;;;;;;;;;;23.52;42.86;100214.31;4995728;28;98957;-79
2021/08/16 03:27:19;;;;;;;;;;;;;;;23.58;42.65;100209.16;4985941;28;97626;-79
2021/08/16 03:29:45;;;;;;;;;;;;;;;23.73;42.53;100207.66;4990139;28;99359;-78
2021/08/16 03:32:11;;;;;;;;;;;;;;;23.60;42.72;100204.47;4983472;28;97353;-80
2021/08/16 03:34:38;;;;;;;;;;;;;;;23.59;42.63;100212.72;4994474;28;102228;-79
2021/08/16 03:37:04;;;;;;;;;;;;;;;23.61;42.55;100206.19;4993647;28;99304;-78
2021/08/16 03:39:30;;;;;;;;;;;;;;;23.01;43.66;100203.00;4992829;28;96728;-81
2021/08/16 03:41:57;;;;;;;;;;;;;;;23.49;43.09;100202.00;4981435;28;98956;-77
2021/08/16 03:44:24;;;;;;;;;;;;;;;23.85;41.93;100200.19;4982861;28;98978;-79
2021/08/16 03:46:51;;;;;;;;;;;;;;;23.77;42.20;100192.00;4985537;28;99125;-79
2021/08/16 03:49:17;;;;;;;;;;;;;;;23.91;41.70;100194.19;4994855;28;96881;-79
2021/08/16 03:51:43;;;;;;;;;;;;;;;23.93;41.77;100188.66;4993671;28;96919;-78
2021/08/16 03:54:10;;;;;;;;;;;;;;;23.87;41.71;100187.41;4992986;28;98925;-78
2021/08/16 03:56:36;;;;;;;;;;;;;;;24.06;41.45;100181.88;4991904;28;101390;-78
2021/08/16 03:59:02;;;;;;;;;;;;;;;23.98;41.74;100184.50;4984139;28;96867;-77
2021/08/16 04:01:30;;;;;;;;;;;;;;;23.97;41.80;100181.94;4991631;28;96791;-78
2021/08/16 04:04:00;;;;;;;;;;;;;;;23.80;42.04;100180.94;4989047;28;98929;-78
2021/08/16 04:06:26;;;;;;;;;;;;;;;24.06;41.26;100175.63;4995031;28;98845;-79
2021/08/16 04:08:53;;;;;;;;;;;;;;;24.02;41.29;100180.50;4994062;28;96920;-78
2021/08/16 04:11:20;;;;;;;;;;;;;;;24.07;41.12;100180.88;4983122;28;96930;-80
2021/08/16 04:13:46;;;;;;;;;;;;;;;24.17;40.93;100169.97;4996568;28;99119;-78
2021/08/16 04:16:12;;;;;;;;;;;;;;;24.54;40.42;100176.09;4998828;28;101086;-78
2021/08/16 04:18:40;;;;;;;;;;;;;;;24.33;40.46;100172.03;5003667;28;96741;-79
2021/08/16 04:21:07;;;;;;;;;;;;;;;24.31;40.78;100179.41;4998269;28;96927;-78
2021/08/16 04:23:33;;;;;;;;;;;;;;;24.59;40.05;100181.84;5006433;28;98941;-78
2021/08/16 04:25:59;;;;;;;;;;;;;;;24.54;40.13;100191.44;5001446;28;99125;-78
2021/08/16 04:28:26;;;;;;;;;;;;;;;24.66;39.94;100202.81;4985881;28;96838;-78
2021/08/16 04:30:52;;;;;;;;;;;;;;;24.66;39.75;100205.53;4995632;28;96972;-78
2021/08/16 04:33:20;;;;;;;;;;;;;;;24.21;41.02;100214.59;4997196;28;98064;-77
2021/08/16 04:35:48;;;;;;;;;;;;;;;24.26;41.14;100209.59;4998184;28;98135;-78
2021/08/16 04:38:19;;;;;;;;;;;;;;;24.57;40.67;100208.16;4996822;28;97071;-79
2021/08/16 04:40:45;;;;;;;;;;;;;;;24.58;40.84;100201.75;4990580;28;97054;-79
2021/08/16 04:43:11;;;;;;;;;;;;;;;24.31;41.39;100206.41;4999089;28;99302;-79
2021/08/16 04:45:37;;;;;;;;;;;;;;;24.05;41.83;100226.06;4997454;28;98762;-79
2021/08/16 04:48:04;;;;;;;;;;;;;;;24.20;41.36;100227.25;4998314;28;96912;-79
2021/08/16 04:50:30;;;;;;;;;;;;;;;24.12;41.55;100208.25;4997109;28;96995;-78
2021/08/16 04:52:58;;;;;;;;;;;;;;;24.39;41.48;100210.03;4994465;28;99027;-79
2021/08/16 04:55:24;;;;;;;;;;;;;;;24.40;41.24;100216.28;4987379;28;97678;-79
2021/08/16 04:57:51;;;;;;;;;;;;;;;24.52;41.20;100225.84;4989892;28;98032;-80
2021/08/16 05:00:19;;;;;;;;;;;;;;;24.46;41.20;100238.13;4995253;28;98057;-77
2021/08/16 05:02:45;;;;;;;;;;;;;;;24.65;40.53;100242.50;4993289;28;100039;-79
2021/08/16 05:05:14;;;;;;;;;;;;;;;24.57;41.03;100239.72;4998408;28;96963;-78
2021/08/16 05:07:46;;;;;;;;;;;;;;;24.67;40.98;100240.50;4996806;28;97077;-78
2021/08/16 05:10:14;;;;;;;;;;;;;;;24.89;40.17;100241.81;4997063;28;96918;-79
2021/08/16 05:12:41;;;;;;;;;;;;;;;25.06;40.13;100240.13;4995400;28;99231;-79
2021/08/16 05:15:07;;;;;;;;;;;;;;;25.06;40.10;100240.13;4981388;28;98913;-79
2021/08/16 05:17:34;;;;;;;;;;;;;;;25.29;39.41;100222.34;4998308;28;96902;-78
2021/08/16 05:20:13;;;;;;;;;;;;;;;25.39;39.72;100232.03;4997797;28;97416;-78
2021/08/16 05:22:42;;;;;;;;;;;;;;;25.19;39.88;100227.03;4998231;28;99158;-78
2021/08/16 05:25:10;;;;;;;;;;;;;;;25.45;39.83;100229.69;4998537;28;99237;-78
2021/08/16 05:27:40;;;;;;;;;;;;;;;25.55;39.95;100236.66;5003411;28;96763;-78
2021/08/16 05:30:07;;;;;;;;;;;;;;;25.38;39.48;100232.19;5009411;28;97030;-78
2021/08/16 05:32:33;;;;;;;;;;;;;;;25.59;39.47;100240.78;5009858;28;98477;-77
2021/08/16 05:34:59;;;;;;;;;;;;;;;25.66;39.33;100241.81;5014485;28;97616;-78
2021/08/16 05:37:26;;;;;;;;;;;;;;;25.50;39.87;100244.41;5006280;28;96670;-78
2021/08/16 05:39:52;;;;;;;;;;;;;;;25.74;39.26;100239.13;5006194;28;96938;-78
2021/08/16 05:42:18;;;;;;;;;;;;;;;25.51;40.11;100235.28;5006012;28;99347;-79
2021/08/16 05:44:46;;;;;;;;;;;;;;;25.64;39.63;100240.28;5006786;28;99892;-78
2021/08/16 05:47:12;;;;;;;;;;;;;;;26.01;38.75;100238.03;5012882;28;96609;-77
2021/08/16 05:49:39;;;;;;;;;;;;;;;25.48;39.58;100235.59;5010062;28;98536;-78
2021/08/16 05:52:06;;;;;;;;;;;;;;;25.99;39.09;100233.81;5013227;28;100016;-80
2021/08/16 05:54:32;;;;;;;;;;;;;;;26.24;38.20;100243.69;5009926;28;98284;-79
2021/08/16 05:56:58;;;;;;;;;;;;;;;26.30;38.08;100236.75;5008906;28;96242;-79
2021/08/16 05:59:25;;;;;;;;;;;;;;;25.44;40.43;100239.66;5007616;28;97397;-79
2021/08/16 06:01:52;;;;;;;;;;;;;;;25.56;40.08;100246.47;5001213;28;97964;-78
2021/08/16 06:04:19;;;;;;;;;;;;;;;26.00;38.65;100240.88;5001520;28;97771;-78
2021/08/16 06:06:45;;;;;;;;;;;;;;;25.75;39.42;100248.09;4999787;28;96711;-78
2021/08/16 06:09:11;;;;;;;;;;;;;;;26.01;38.56;100248.00;4997488;28;96976;-79
2021/08/16 06:11:38;;;;;;;;;;;;;;;26.11;38.67;100243.31;4993024;28;99638;-79
2021/08/16 06:14:04;;;;;;;;;;;;;;;26.52;38.29;100250.47;4997853;28;98716;-78
2021/08/16 06:16:31;;;;;;;;;;;;;;;26.60;38.04;100246.91;4997411;28;96893;-78
2021/08/16 06:18:59;;;;;;;;;;;;;;;26.06;39.17;100241.06;4997378;28;97069;-79
2021/08/16 06:21:25;;;;;;;;;;;;;;;26.18;38.61;100245.19;4994831;28;99243;-79
2021/08/16 06:23:51;;;;;;;;;;;;;;;25.49;40.35;100248.13;4997229;28;101880;-79
2021/08/16 06:26:18;;;;;;;;;;;;;;;25.85;39.94;100256.94;4984113;28;97259;-78
2021/08/16 06:28:45;;;;;;;;;;;;;;;25.91;40.02;100258.97;4989547;28;96904;-79
2021/08/16 06:31:11;;;;;;;;;;;;;;;24.99;42.14;100251.56;4990477;28;98958;-79
2021/08/16 06:33:40;;;;;;;;;;;;;;;25.80;40.62;100253.84;4993313;28;98890;-78
2021/08/16 06:36:11;;;;;;;;;;;;;;;25.87;40.47;100260.31;4996859;28;97184;-79
2021/08/16 06:38:37;;;;;;;;;;;;;;;26.02;40.42;100265.94;5000465;28;96890;-79
2021/08/16 06:41:04;;;;;;;;;;;;;;;25.85;40.38;100258.78;4990870;28;100189;-80
2021/08/16 06:43:32;;;;;;;;;;;;;;;25.90;40.31;100260.00;4994295;28;100967;-79
2021/08/16 06:45:58;;;;;;;;;;;;;;;25.02;42.07;100262.06;5011467;28;96956;-79
2021/08/16 06:48:24;;;;;;;;;;;;;;;25.65;40.99;100261.78;5010675;28;96966;-79
2021/08/16 06:50:51;;;;;;;;;;;;;;;26.14;40.16;100268.16;5012432;28;99373;-78
2021/08/16 06:53:18;;;;;;;;;;;;;;;26.28;39.70;100265.84;5004889;28;101077;-79
2021/08/16 06:55:45;;;;;;;;;;;;;;;25.96;40.89;100264.75;4988833;28;96879;-79
2021/08/16 06:58:12;;;;;;;;;;;;;;;26.27;40.09;100269.56;4989967;28;97108;-79
2021/08/16 07:00:40;;;;;;;;;;;;;;;26.32;39.94;100259.94;4993865;28;98212;-78
2021/08/16 07:03:06;;;;;;;;;;;;;;;25.96;40.79;100270.16;4993524;28;99132;-79
2021/08/16 07:05:32;;;;;;;;;;;;;;;26.42;40.12;100263.34;4992525;28;96926;-78
2021/08/16 07:07:58;;;;;;;;;;;;;;;26.16;41.01;100270.72;4989032;28;97017;-79
2021/08/16 07:10:26;;;;;;;;;;;;;;;26.36;40.87;100264.03;4987349;28;98152;-78
2021/08/16 07:12:52;;;;;;;;;;;;;;;26.11;41.54;100259.53;4992918;28;98444;-78
2021/08/16 07:15:19;;;;;;;;;;;;;;;26.44;40.65;100266.75;4991073;28;97705;-79
2021/08/16 07:17:45;;;;;;;;;;;;;;;26.07;41.93;100255.47;4988707;28;97505;-77
2021/08/16 07:20:12;;;;;;;;;;;;;;;26.47;41.11;100255.56;4990557;28;99121;-81
2021/08/16 07:22:38;;;;;;;;;;;;;;;27.15;40.09;100247.06;4984955;28;99545;-77
2021/08/16 07:25:05;;;;;;;;;;;;;;;26.98;40.30;100251.66;4986298;28;97450;-79
2021/08/16 07:27:32;;;;;;;;;;;;;;;27.98;38.36;100238.44;4983450;28;98110;-79
2021/08/16 07:29:59;;;;;;;;;;;;;;;28.80;36.78;100242.31;4988100;28;98928;-78
2021/08/16 07:32:25;;;;;;;;;;;;;;;27.67;38.43;100242.00;4990965;28;101132;-78
2021/08/16 07:34:51;;;;;;;;;;;;;;;27.30;39.33;100241.78;4979904;28;96935;-79
2021/08/16 07:37:18;;;;;;;;;;;;;;;27.07;39.87;100247.09;4986399;28;97401;-79
2021/08/16 07:39:44;;;;;;;;;;;;;;;26.89;40.41;100243.72;4983975;28;97850;-79
2021/08/16 07:42:10;;;;;;;;;;;;;;;26.29;41.44;100249.44;4986283;28;99393;-80
2021/08/16 07:44:38;;;;;;;;;;;;;;;26.22;41.51;100261.06;4993382;28;98934;-79
2021/08/16 07:47:05;;;;;;;;;;;;;;;25.86;42.37;100260.50;4995171;28;98349;-80
2021/08/16 07:49:32;;;;;;;;;;;;;;;26.27;41.99;100266.88;4999569;28;99422;-79
2021/08/16 07:51:58;;;;;;;;;;;;;;;26.29;41.94;100265.69;4986792;28;98784;-78
2021/08/16 07:54:25;;;;;;;;;;;;;;;26.78;40.76;100263.84;4987533;28;97941;-77
2021/08/16 07:56:51;;;;;;;;;;;;;;;27.22;40.08;100272.50;4989611;28;96826;-78
2021/08/16 07:59:18;;;;;;;;;;;;;;;26.84;40.96;100279.47;4985960;28;99552;-79
2021/08/16 08:01:47;;;;;;;;;;;;;;;27.36;39.94;100277.19;4988710;28;101404;-78
2021/08/16 08:04:14;;;;;;;;;;;;;;;27.13;40.21;100268.09;4987095;28;97110;-79
2021/08/16 08:06:40;;;;;;;;;;;;;;;27.22;40.32;100274.34;4991868;28;97324;-80
2021/08/16 08:09:07;;;;;;;;;;;;;;;26.98;40.34;100268.97;4983585;28;98303;-80
2021/08/16 08:11:33;;;;;;;;;;;;;;;26.93;40.16;100275.75;4993584;28;97913;-79
2021/08/16 08:14:00;;;;;;;;;;;;;;;27.43;39.36;100290.06;4996395;28;96752;-79
2021/08/16 08:16:26;;;;;;;;;;;;;;;27.49;38.31;100284.78;4992287;28;98146;-80
2021/08/16 08:18:54;;;;;;;;;;;;;;;27.80;37.57;100289.47;4994693;28;102159;-77
2021/08/16 08:21:20;;;;;;;;;;;;;;;27.51;37.73;100287.31;4994503;28;101241;-79
2021/08/16 08:23:46;;;;;;;;;;;;;;;27.62;37.26;100289.69;5006691;28;97078;-78
2021/08/16 08:26:13;;;;;;;;;;;;;;;28.16;36.28;100295.25;4993107;28;97402;-76
2021/08/16 08:28:39;;;;;;;;;;;;;;;28.27;36.10;100284.81;5000632;28;99007;-78
2021/08/16 08:31:05;;;;;;;;;;;;;;;27.52;37.03;100294.47;4999585;28;99192;-79
2021/08/16 08:33:32;;;;;;;;;;;;;;;27.74;36.56;100291.00;4989966;28;98416;-80
2021/08/16 08:35:59;;;;;;;;;;;;;;;28.42;35.43;100287.63;4991688;28;97227;-79
2021/08/16 08:38:26;;;;;;;;;;;;;;;27.02;36.61;100281.16;4991079;28;98261;-78
2021/08/16 08:40:53;;;;;;;;;;;;;;;27.07;36.40;100281.47;4986500;28;99001;-78
2021/08/16 08:43:19;;;;;;;;;;;;;;;26.76;36.79;100284.03;4989599;28;97729;-79
2021/08/16 08:45:46;;;;;;;;;;;;;;;27.32;35.53;100283.13;4989355;28;98286;-78
2021/08/16 08:48:17;;;;;;;;;;;;;;;27.42;35.37;100280.25;4989251;28;97872;-79
2021/08/16 08:50:43;;;;;;;;;;;;;;;27.32;35.51;100275.84;4990074;28;99213;-79
2021/08/16 08:53:11;;;;;;;;;;;;;;;26.20;37.36;100296.44;4995565;28;97210;-79
2021/08/16 08:55:37;;;;;;;;;;;;;;;26.30;37.13;100290.94;4986897;28;97235;-78
2021/08/16 08:58:05;;;;;;;;;;;;;;;26.11;37.00;100294.75;4985826;28;98848;-78
2021/08/16 09:00:33;;;;;;;;;;;;;;;26.87;36.27;100294.53;4988510;28;97831;-80
2021/08/16 09:03:00;;;;;;;;;;;;;;;25.57;38.47;100296.91;4965300;28;96970;-79
2021/08/16 09:05:27;;;;;;;;;;;;;;;25.73;38.61;100305.06;4994809;28;98696;-78
2021/08/16 09:07:54;;;;;;;;;;;;;;;26.36;36.84;100312.78;4994307;28;99486;-77
2021/08/16 09:10:24;;;;;;;;;;;;;;;26.24;37.23;100307.81;4990265;28;99216;-77
2021/08/16 09:12:57;;;;;;;;;;;;;;;26.82;36.63;100300.47;4993231;28;96917;-77
2021/08/16 09:15:24;;;;;;;;;;;;;;;28.19;34.09;100303.03;4997677;28;98339;-79
2021/08/16 09:17:51;;;;;;;;;;;;;;;28.19;33.72;100297.59;5005959;28;97635;-79
2021/08/16 09:20:18;;;;;;;;;;;;;;;28.22;33.42;100302.69;5001532;28;97872;-78
2021/08/16 09:22:48;;;;;;;;;;;;;;;28.86;32.18;100310.41;5003322;28;97946;-79
2021/08/16 09:25:16;;;;;;;;;;;;;;;28.57;31.90;100307.53;5000360;28;97024;-81
2021/08/16 09:27:53;;;;;;;;;;;;;;;27.59;33.40;100299.03;4995903;28;98574;-78
2021/08/16 09:30:29;;;;;;;;;;;;;;;26.43;35.82;100318.38;4991351;28;98222;-78
2021/08/16 09:32:55;;;;;;;;;;;;;;;26.74;35.30;100319.41;4989485;28;97514;-77
2021/08/16 09:35:21;;;;;;;;;;;;;;;26.73;35.12;100325.00;4990222;28;97122;-78
2021/08/16 09:37:53;;;;;;;;;;;;;;;27.61;33.83;100315.16;4988292;28;98066;-81
2021/08/16 09:40:20;;;;;;;;;;;;;;;27.29;34.11;100316.91;4982574;28;98932;-78
2021/08/16 09:42:48;;;;;;;;;;;;;;;27.73;33.45;100320.03;4990301;28;97541;-77
2021/08/16 09:45:27;;;;;;;;;;;;;;;27.02;34.22;100316.41;4988229;28;97133;-79
2021/08/16 09:47:56;;;;;;;;;;;;;;;26.90;34.31;100311.34;4988959;28;101522;-77
2021/08/16 09:50:23;;;;;;;;;;;;;;;28.07;32.61;100317.00;4995548;28;99328;-79
2021/08/16 09:52:49;;;;;;;;;;;;;;;28.70;31.91;100306.94;4990243;28;100739;-77
2021/08/16 09:55:15;;;;;;;;;;;;;;;27.69;32.83;100315.13;4988668;28;100107;-78
2021/08/16 09:57:42;;;;;;;;;;;;;;;27.82;32.72;100310.00;4987436;28;100472;-78
2021/08/16 10:00:11;;;;;;;;;;;;;;;27.38;33.16;100304.97;4988033;28;99176;-79
2021/08/16 10:02:37;;;;;;;;;;;;;;;27.67;32.49;100309.03;4990392;28;97048;-79
2021/08/16 10:05:04;;;;;;;;;;;;;;;28.27;31.31;100311.16;4995156;28;96921;-80
2021/08/16 10:07:32;;;;;;;;;;;;;;;28.72;30.75;100289.44;4997503;28;98063;-79
2021/08/16 10:10:00;;;;;;;;;;;;;;;28.99;30.56;100304.34;4988708;28;98891;-78
2021/08/16 10:12:27;;;;;;;;;;;;;;;28.49;30.79;100296.72;4991167;28;97866;-79
2021/08/16 10:14:54;;;;;;;;;;;;;;;28.16;30.84;100292.53;4970780;28;97836;-78
2021/08/16 10:17:24;;;;;;;;;;;;;;;28.40;30.42;100293.22;4989935;28;98999;-78
2021/08/16 10:19:51;;;;;;;;;;;;;;;28.97;29.49;100300.13;4988475;28;98834;-77
2021/08/16 10:22:17;;;;;;;;;;;;;;;28.68;29.87;100288.09;4988086;28;98574;-79
2021/08/16 10:24:44;;;;;;;;;;;;;;;28.19;30.69;100297.59;4989295;28;99057;-78
2021/08/16 10:27:11;;;;;;;;;;;;;;;28.85;29.60;100297.84;4993155;28;100827;-78
2021/08/16 10:29:38;;;;;;;;;;;;;;;27.88;30.82;100298.41;4991262;28;101052;-78
2021/08/16 10:32:08;;;;;;;;;;;;;;;28.38;30.42;100280.84;4993774;28;97092;-79
2021/08/16 10:34:37;;;;;;;;;;;;;;;28.81;29.25;100288.38;4987357;28;98767;-78
2021/08/16 10:37:04;;;;;;;;;;;;;;;28.10;30.21;100277.75;4990480;28;101388;-78
2021/08/16 10:39:35;;;;;;;;;;;;;;;28.78;29.33;100275.13;4991099;28;98866;-78
2021/08/16 10:42:05;;;;;;;;;;;;;;;29.30;29.02;100277.00;4992776;28;96893;-78
2021/08/16 10:44:37;;;;;;;;;;;;;;;29.14;28.52;100277.19;4992880;28;97933;-78
2021/08/16 10:47:04;;;;;;;;;;;;;;;28.74;29.40;100270.22;4993928;28;99310;-78
2021/08/16 10:49:32;;;;;;;;;;;;;;;28.55;29.95;100272.38;4990868;28;98828;-78
2021/08/16 10:52:00;;;;;;;;;;;;;;;27.77;31.11;100267.06;4996750;28;97185;-78
2021/08/16 10:54:27;;;;;;;;;;;;;;;27.62;31.79;100262.56;4992059;28;97757;-76
2021/08/16 10:56:55;;;;;;;;;;;;;;;27.58;31.72;100266.63;5002483;28;98248;-79
2021/08/16 10:59:22;;;;;;;;;;;;;;;27.44;32.02;100270.06;4989788;28;99081;-79
2021/08/16 11:01:49;;;;;;;;;;;;;;;26.57;33.17;100269.81;4990040;28;98819;-79
2021/08/16 11:04:16;;;;;;;;;;;;;;;27.21;32.32;100262.66;4989706;28;96978;-79
2021/08/16 11:06:52;;;;;;;;;;;;;;;27.30;32.15;100267.06;4999434;28;98528;-79
2021/08/16 11:09:26;;;;;;;;;;;;;;;27.75;30.98;100268.28;5006802;28;102448;-79
2021/08/16 11:11:54;;;;;;;;;;;;;;;27.70;30.69;100244.34;5006397;28;96979;-80
2021/08/16 11:14:23;;;;;;;;;;;;;;;27.93;30.61;100247.13;5007661;28;96814;-79
2021/08/16 11:16:51;;;;;;;;;;;;;;;27.99;30.40;100232.84;5011149;28;97800;-79
2021/08/16 11:19:17;;;;;;;;;;;;;;;27.97;30.41;100224.03;5012040;28;101057;-78
2021/08/16 11:21:53;;;;;;;;;;;;;;;28.55;30.15;100228.06;5012390;28;96060;-79
2021/08/16 11:24:26;;;;;;;;;;;;;;;28.07;30.26;100229.25;5009447;28;96731;-79
2021/08/16 11:26:53;;;;;;;;;;;;;;;27.91;30.10;100234.75;5017912;28;97891;-78
2021/08/16 11:29:22;;;;;;;;;;;;;;;28.77;29.03;100229.94;5015867;28;98739;-77
2021/08/16 11:31:50;;;;;;;;;;;;;;;28.27;29.38;100213.34;5017654;28;96176;-78
2021/08/16 11:34:17;;;;;;;;;;;;;;;28.72;29.92;100217.91;5014695;28;97705;-78
2021/08/16 11:36:45;;;;;;;;;;;;;;;28.88;29.42;100224.03;5011736;28;99030;-77
2021/08/16 11:39:11;;;;;;;;;;;;;;;28.93;29.30;100229.78;5014266;28;97990;-78
2021/08/16 11:41:39;;;;;;;;;;;;;;;28.98;29.14;100226.50;5010278;28;96623;-78
2021/08/16 11:44:13;;;;;;;;;;;;;;;28.73;28.71;100242.19;4999583;28;98524;-77
2021/08/16 11:46:39;;;;;;;;;;;;;;;29.20;27.79;100233.75;4996581;28;97020;-78
2021/08/16 11:49:10;;;;;;;;;;;;;;;29.52;27.68;100234.44;4998494;28;98143;-79
2021/08/16 11:51:36;;;;;;;;;;;;;;;29.69;27.21;100231.31;4993855;28;98588;-78
2021/08/16 11:54:03;;;;;;;;;;;;;;;29.77;27.51;100233.09;4995273;28;98178;-77
2021/08/16 11:56:29;;;;;;;;;;;;;;;29.93;27.60;100223.88;4996950;28;100042;-77
2021/08/16 11:58:57;;;;;;;;;;;;;;;29.79;27.73;100235.63;4994233;28;98232;-78
2021/08/16 12:01:23;;;;;;;;;;;;;;;29.81;28.19;100225.38;4992514;28;97210;-77
2021/08/16 12:03:50;;;;;;;;;;;;;;;29.39;28.14;100212.50;4994525;28;99874;-77
2021/08/16 12:06:17;;;;;;;;;;;;;;;29.44;28.10;100215.47;4994527;28;101991;-78
2021/08/16 12:08:44;;;;;;;;;;;;;;;29.73;27.93;100229.06;4998939;28;102047;-77
2021/08/16 12:11:11;;;;;;;;;;;;;;;29.29;27.99;100220.88;5006493;28;97340;-79
2021/08/16 12:13:37;;;;;;;;;;;;;;;29.45;27.56;100228.91;5005832;28;96944;-78
2021/08/16 12:16:14;;;;;;;;;;;;;;;28.97;27.62;100222.09;4990759;28;99601;-76
2021/08/16 12:18:42;;;;;;;;;;;;;;;30.17;26.46;100223.53;4993154;28;99204;-78
2021/08/16 12:21:18;;;;;;;;;;;;;;;30.05;26.92;100230.53;4992148;28;97434;-78
2021/08/16 12:23:52;;;;;;;;;;;;;;;29.78;27.42;100226.59;4994441;28;97027;-77
2021/08/16 12:26:27;;;;;;;;;;;;;;;30.02;27.59;100229.00;4992183;28;98968;-78
2021/08/16 12:28:53;;;;;;;;;;;;;;;28.77;28.97;100229.94;4991584;28;99159;-78
2021/08/16 12:31:24;;;;;;;;;;;;;;;29.55;28.10;100226.72;4991582;28;97276;-78
2021/08/16 12:33:54;;;;;;;;;;;;;;;29.79;27.75;100236.47;4993387;28;97161;-76
2021/08/16 12:36:24;;;;;;;;;;;;;;;29.53;28.41;100236.13;4994603;28;99047;-78